Dixie Airport


Codes: YDIX/DXD
Name: Dixie Airport
City: New Dixie
Country: Australia
Elevation: 580 ft.

Photos at Dixie Airport


   Photos courtesy of SpottingLog. You can add your own sightings and photos by signing up for a free trial today.



No photos found.

Weather at Dixie Airport


Time (UTC)DescriptionTempratureWindCloud coverageVisibilityPressureHumidity
16-Jun-2024 12:00Clear Sky21°C4 mph, NE0%10000m1014hPa55%
16-Jun-2024 15:00Clear Sky19°C4 mph, NE1%10000m1014hPa78%
16-Jun-2024 18:00Clear Sky16°C4 mph, NE2%10000m1014hPa97%
16-Jun-2024 21:00Clear Sky15°C4 mph, NE6%10000m1016hPa96%
17-Jun-2024 00:00Clear Sky24°C7 mph, E3%10000m1016hPa59%
17-Jun-2024 03:00Clear Sky30°C4 mph, E0%10000m1013hPa35%
17-Jun-2024 06:00Clear Sky31°C4 mph, E0%10000m1011hPa30%
17-Jun-2024 09:00Clear Sky23°C7 mph, NE0%10000m1013hPa55%
17-Jun-2024 12:00Clear Sky19°C7 mph, NE0%10000m1016hPa83%
17-Jun-2024 15:00Clear Sky17°C7 mph, NE0%10000m1016hPa87%
17-Jun-2024 18:00Clear Sky16°C7 mph, E0%10000m1015hPa93%
17-Jun-2024 21:00Clear Sky15°C7 mph, E0%10000m1016hPa95%
18-Jun-2024 00:00Clear Sky24°C11 mph, E0%10000m1017hPa50%
18-Jun-2024 03:00Clear Sky28°C7 mph, E0%10000m1014hPa33%
18-Jun-2024 06:00Clear Sky29°C7 mph, E0%10000m1012hPa29%
18-Jun-2024 09:00Clear Sky22°C9 mph, NE0%10000m1014hPa53%
18-Jun-2024 12:00Clear Sky18°C7 mph, E0%10000m1016hPa76%
18-Jun-2024 15:00Clear Sky16°C7 mph, NE0%10000m1016hPa90%
18-Jun-2024 18:00Clear Sky15°C7 mph, E0%10000m1015hPa93%
18-Jun-2024 21:00Clear Sky15°C7 mph, E2%10000m1016hPa94%
19-Jun-2024 00:00Clear Sky24°C13 mph, E3%10000m1017hPa53%
19-Jun-2024 03:00Clear Sky28°C9 mph, E5%10000m1014hPa35%
19-Jun-2024 06:00Clear Sky29°C9 mph, E4%10000m1011hPa30%
19-Jun-2024 09:00Clear Sky22°C9 mph, NE0%10000m1013hPa58%
19-Jun-2024 12:00Clear Sky18°C7 mph, E0%10000m1016hPa70%
19-Jun-2024 15:00Clear Sky16°C7 mph, E0%10000m1015hPa83%
19-Jun-2024 18:00Clear Sky15°C7 mph, E0%10000m1016hPa89%
19-Jun-2024 21:00Clear Sky14°C7 mph, E1%10000m1017hPa93%
20-Jun-2024 00:00Clear Sky23°C11 mph, E2%10000m1017hPa52%
20-Jun-2024 03:00Clear Sky28°C9 mph, E3%10000m1015hPa32%
20-Jun-2024 06:00Clear Sky29°C7 mph, E1%10000m1012hPa27%
20-Jun-2024 09:00Clear Sky22°C7 mph, NE0%10000m1014hPa52%
20-Jun-2024 12:00Clear Sky18°C9 mph, NE0%10000m1017hPa73%
20-Jun-2024 15:00Clear Sky16°C7 mph, E3%10000m1016hPa89%
20-Jun-2024 18:00Clear Sky15°C7 mph, E3%10000m1016hPa93%
20-Jun-2024 21:00Clear Sky15°C7 mph, E5%10000m1016hPa93%
21-Jun-2024 00:00Few Clouds24°C11 mph, E17%10000m1018hPa56%
21-Jun-2024 03:00Overcast Clouds29°C9 mph, E95%10000m1015hPa36%
21-Jun-2024 06:00Overcast Clouds30°C9 mph, E99%10000m1012hPa33%
21-Jun-2024 09:00Broken Clouds25°C11 mph, E75%10000m1015hPa49%